Time;durP1;ratioP1;P1;durP2;ratioP2;P2;SDS_P1;SDS_P2;PMS_P1;PMS_P2;Temp;Humidity;BMP_temperature;BMP_pressure;BME280_temperature;BME280_humidity;BME280_pressure;Samples;Min_cycle;Max_cycle;Signal;HPM_P1;HPM_P2
2022/12/25 00:01:49;;;;;;;62.47;19.23;;;6.10;99.90;;;;;;4957006;28;93336;-81
2022/12/25 00:04:17;;;;;;;92.45;21.38;;;6.10;99.90;;;;;;4973315;28;95301;-81
2022/12/25 00:06:46;;;;;;;52.92;17.77;;;6.00;99.90;;;;;;4957136;28;92496;-80
2022/12/25 00:09:13;;;;;;;85.28;22.10;;;6.00;99.90;;;;;;4958118;28;92185;-81
2022/12/25 00:11:43;;;;;;;75.43;20.17;;;6.00;99.90;;;;;;4956624;28;95864;-81
2022/12/25 00:14:10;;;;;;;60.88;19.23;;;6.00;99.90;;;;;;4959399;28;95716;-81
2022/12/25 00:16:37;;;;;;;74.63;19.27;;;6.00;99.90;;;;;;4959087;28;94863;-81
2022/12/25 00:19:04;;;;;;;71.05;20.70;;;5.90;99.90;;;;;;4960451;28;92528;-81
2022/12/25 00:21:33;;;;;;;76.50;21.23;;;6.00;99.90;;;;;;4976167;28;96032;-81
2022/12/25 00:24:03;;;;;;;90.55;23.50;;;6.00;99.90;;;;;;4960253;28;95618;-80
2022/12/25 00:26:30;;;;;;;65.28;19.83;;;6.00;99.90;;;;;;4960095;28;92591;-81
2022/12/25 00:28:58;;;;;;;69.75;18.52;;;5.90;99.90;;;;;;4960235;28;92575;-81
2022/12/25 00:31:25;;;;;;;67.72;20.17;;;6.00;99.90;;;;;;4960108;28;95660;-81
2022/12/25 00:33:53;;;;;;;73.25;19.88;;;6.00;99.90;;;;;;4960742;28;93082;-80
2022/12/25 00:36:22;;;;;;;65.63;18.88;;;6.00;99.90;;;;;;4960352;28;92666;-80
2022/12/25 00:38:49;;;;;;;74.53;20.70;;;6.00;99.90;;;;;;4976384;28;92498;-80
2022/12/25 00:44:08;;;;;;;81.60;22.92;;;6.00;99.90;;;;;;4975872;28;98616;-80
2022/12/25 00:46:36;;;;;;;75.97;22.83;;;6.00;99.90;;;;;;4959902;28;92938;-80
2022/12/25 00:49:04;;;;;;;92.97;23.27;;;6.00;99.90;;;;;;4960368;28;92534;-80
2022/12/25 00:51:32;;;;;;;74.15;21.30;;;6.00;99.90;;;;;;4943615;28;96310;-81
2022/12/25 00:53:59;;;;;;;89.38;24.13;;;6.00;99.90;;;;;;4975994;28;93036;-80
2022/12/25 00:56:26;;;;;;;78.68;22.73;;;6.00;99.90;;;;;;4959746;28;92391;-80
2022/12/25 00:58:54;;;;;;;80.47;22.48;;;6.00;99.90;;;;;;4960476;28;92257;-80
2022/12/25 01:01:21;;;;;;;65.45;19.08;;;6.00;99.90;;;;;;4959581;28;93312;-81
2022/12/25 01:03:48;;;;;;;70.65;18.73;;;6.00;99.90;;;;;;4943298;28;95464;-80
2022/12/25 01:06:15;;;;;;;79.15;21.50;;;6.00;99.90;;;;;;4974997;28;94804;-80
2022/12/25 01:11:31;;;;;;;71.03;21.50;;;6.00;99.90;;;;;;4975302;28;95974;-80
2022/12/25 01:13:58;;;;;;;77.38;23.00;;;5.90;99.90;;;;;;4975703;28;95421;-80
2022/12/25 01:16:29;;;;;;;81.65;22.00;;;6.00;99.90;;;;;;4975654;28;92477;-80
2022/12/25 01:18:56;;;;;;;83.07;21.35;;;6.00;99.90;;;;;;4959631;28;92457;-81
2022/12/25 01:21:23;;;;;;;66.00;17.60;;;5.90;99.90;;;;;;4959246;28;96311;-80
2022/12/25 01:23:51;;;;;;;66.10;18.83;;;5.90;99.90;;;;;;4959157;28;96788;-80
2022/12/25 01:26:20;;;;;;;61.97;17.73;;;6.00;99.90;;;;;;4958868;28;93038;-81
2022/12/25 01:28:48;;;;;;;61.35;18.70;;;6.00;99.90;;;;;;4959072;28;92615;-81
2022/12/25 01:31:18;;;;;;;68.78;19.58;;;6.00;99.90;;;;;;4974155;28;95644;-80
2022/12/25 01:33:45;;;;;;;70.95;20.25;;;6.00;99.90;;;;;;4943001;28;97986;-80
2022/12/25 01:36:22;;;;;;;72.97;19.23;;;6.00;99.90;;;;;;4959512;28;92526;-80
2022/12/25 01:38:50;;;;;;;59.65;18.10;;;6.00;99.90;;;;;;4975224;28;92531;-80
2022/12/25 01:41:21;;;;;;;66.07;19.02;;;6.00;99.90;;;;;;4975183;28;93529;-80
2022/12/25 01:44:07;;;;;;;75.93;20.27;;;6.00;99.90;;;;;;4958430;28;101951;-80
2022/12/25 01:46:35;;;;;;;68.82;20.73;;;6.00;99.90;;;;;;4942656;28;92568;-80
2022/12/25 01:49:10;;;;;;;55.55;16.85;;;6.00;99.90;;;;;;4959092;28;91902;-81
2022/12/25 01:51:44;;;;;;;68.15;17.10;;;6.00;99.90;;;;;;4976336;28;93309;-80
2022/12/25 01:54:18;;;;;;;63.92;17.83;;;6.00;99.90;;;;;;4974971;28;93187;-80
2022/12/25 01:56:49;;;;;;;67.60;18.15;;;6.10;99.90;;;;;;4957386;28;94732;-81
2022/12/25 01:59:20;;;;;;;68.85;19.33;;;6.10;99.90;;;;;;4958786;28;92548;-80
2022/12/25 02:01:47;;;;;;;60.70;19.40;;;6.20;99.90;;;;;;4974458;28;94390;-80
2022/12/25 02:04:39;;;;;;;50.00;15.82;;;6.30;99.90;;;;;;4974851;28;95365;-81
2022/12/25 02:07:18;;;;;;;59.15;18.55;;;6.40;99.90;;;;;;4958623;28;92476;-80
2022/12/25 02:09:46;;;;;;;57.30;18.35;;;6.50;99.90;;;;;;4974970;28;92985;-81
2022/12/25 02:12:24;;;;;;;59.22;18.15;;;6.50;99.90;;;;;;4974707;28;95672;-80
2022/12/25 02:14:57;;;;;;;61.42;17.75;;;6.60;99.90;;;;;;4959451;28;95865;-81
2022/12/25 02:18:05;;;;;;;70.50;17.70;;;6.60;99.90;;;;;;4974771;28;93346;-81
2022/12/25 02:21:22;;;;;;;57.47;17.70;;;6.70;99.90;;;;;;4974755;28;92454;-81
2022/12/25 02:23:51;;;;;;;59.58;16.58;;;6.70;99.90;;;;;;4956987;28;97963;-80
2022/12/25 02:26:25;;;;;;;58.35;17.00;;;6.60;99.90;;;;;;4958305;28;98115;-81
2022/12/25 02:29:16;;;;;;;56.88;18.75;;;6.70;99.90;;;;;;4958307;28;93451;-81
2022/12/25 02:31:53;;;;;;;50.03;17.40;;;6.70;99.90;;;;;;4958510;28;92512;-80
2022/12/25 02:34:34;;;;;;;52.00;17.48;;;6.80;99.90;;;;;;4974461;28;95915;-81
2022/12/25 02:37:07;;;;;;;50.65;17.80;;;6.80;99.90;;;;;;4956816;28;95801;-81
2022/12/25 02:40:18;;;;;;;58.25;17.83;;;6.90;99.90;;;;;;4958338;28;92451;-80
2022/12/25 03:11:29;;;;;;;52.80;16.33;;;7.50;99.90;;;;;;4976968;28;95862;-81
2022/12/25 03:11:46;;;;;;;44.28;15.35;;;7.60;99.90;;;;;;4977104;28;95823;-81
2022/12/25 03:16:59;;;;;;;44.08;15.23;;;7.70;99.90;;;;;;4976807;28;92593;-80
2022/12/25 03:28:23;;;;;;;44.70;14.23;;;7.90;99.90;;;;;;4914342;28;92530;-80
2022/12/25 03:31:11;;;;;;;65.13;16.08;;;8.00;99.90;;;;;;4882361;28;96442;-80
2022/12/25 04:38:35;;;;;;;41.60;14.75;;;8.50;99.90;;;;;;4996314;28;95826;-80
2022/12/25 04:41:03;;;;;;;41.70;14.60;;;8.50;99.90;;;;;;4979214;28;96054;-79
2022/12/25 04:43:30;;;;;;;37.95;15.43;;;8.60;99.90;;;;;;4962733;28;94873;-79
2022/12/25 04:45:58;;;;;;;33.53;12.75;;;8.60;99.90;;;;;;4963315;28;92503;-79
2022/12/25 04:48:27;;;;;;;47.88;16.17;;;8.60;99.90;;;;;;4979809;28;94086;-79
2022/12/25 04:50:54;;;;;;;41.38;16.33;;;8.70;99.90;;;;;;4979440;28;94052;-79
2022/12/25 04:53:21;;;;;;;46.28;16.35;;;8.70;99.90;;;;;;4963193;28;93142;-79
2022/12/25 04:55:48;;;;;;;44.83;15.73;;;8.70;99.90;;;;;;4963058;28;97379;-80
2022/12/25 04:58:16;;;;;;;41.33;16.65;;;8.80;99.90;;;;;;4997117;28;93337;-79
2022/12/25 05:00:43;;;;;;;41.05;17.15;;;8.80;99.90;;;;;;4945775;28;95627;-79
2022/12/25 05:03:11;;;;;;;43.42;16.42;;;8.90;99.90;;;;;;4997224;28;92494;-79
2022/12/25 05:05:39;;;;;;;46.97;16.13;;;8.90;99.90;;;;;;4979333;28;92575;-79
2022/12/25 05:08:15;;;;;;;43.60;16.23;;;8.90;99.90;;;;;;4961509;28;98045;-79
2022/12/25 05:10:42;;;;;;;45.17;18.02;;;9.00;99.90;;;;;;4979157;28;98196;-79
2022/12/25 05:13:09;;;;;;;51.42;17.85;;;9.00;99.90;;;;;;4962759;28;92441;-79
2022/12/25 05:15:39;;;;;;;45.85;17.17;;;9.00;99.90;;;;;;4996843;28;92446;-79
2022/12/25 05:18:06;;;;;;;38.00;15.13;;;9.10;99.90;;;;;;4962306;28;95493;-79
2022/12/25 05:20:34;;;;;;;44.70;17.73;;;9.00;99.90;;;;;;4978712;28;98490;-80
2022/12/25 05:23:06;;;;;;;46.63;17.25;;;9.00;99.90;;;;;;4963294;28;92441;-79
2022/12/25 05:25:33;;;;;;;48.88;18.40;;;9.10;99.90;;;;;;4979674;28;91809;-79
2022/12/25 05:28:00;;;;;;;46.08;17.58;;;9.10;99.90;;;;;;4978685;28;95658;-79
2022/12/25 05:30:27;;;;;;;53.30;17.73;;;9.20;99.90;;;;;;4962537;28;95800;-79
2022/12/25 05:32:54;;;;;;;48.88;17.10;;;9.20;99.90;;;;;;4995515;28;94848;-79
2022/12/25 05:35:21;;;;;;;48.75;16.60;;;9.20;99.90;;;;;;4979063;28;92827;-79
2022/12/25 05:37:48;;;;;;;48.45;18.77;;;9.20;99.90;;;;;;4962360;28;93702;-79
2022/12/25 05:40:15;;;;;;;48.78;19.15;;;9.20;99.90;;;;;;4962515;28;93419;-79
2022/12/25 05:42:42;;;;;;;52.95;19.02;;;9.30;99.90;;;;;;4978521;28;93084;-79
2022/12/25 05:45:09;;;;;;;49.33;17.95;;;9.30;99.90;;;;;;4978222;28;92573;-80
2022/12/25 05:47:36;;;;;;;41.47;17.63;;;9.40;99.90;;;;;;4962187;28;95884;-79
2022/12/25 05:50:04;;;;;;;46.33;18.83;;;9.40;99.90;;;;;;4978394;28;95936;-79
2022/12/25 05:52:32;;;;;;;43.53;18.38;;;9.40;99.90;;;;;;4962442;28;92573;-80
2022/12/25 05:55:00;;;;;;;48.20;18.15;;;9.40;99.90;;;;;;4962691;28;92544;-80
2022/12/25 05:57:28;;;;;;;48.42;19.33;;;9.50;99.90;;;;;;4976625;28;98624;-80
2022/12/25 05:59:56;;;;;;;51.40;18.70;;;9.50;99.90;;;;;;4978490;28;95523;-80
2022/12/25 06:02:23;;;;;;;43.15;19.08;;;9.50;99.90;;;;;;4961579;28;92817;-80
2022/12/25 06:04:50;;;;;;;47.22;18.55;;;9.50;99.90;;;;;;4962028;28;93290;-80
2022/12/25 06:07:17;;;;;;;48.42;18.00;;;9.50;99.90;;;;;;4961666;28;101071;-80
2022/12/25 06:09:44;;;;;;;50.08;18.60;;;9.50;99.90;;;;;;4995956;28;93949;-80
2022/12/25 06:12:11;;;;;;;44.05;17.73;;;9.50;99.90;;;;;;4961916;28;92491;-80
2022/12/25 06:14:38;;;;;;;39.95;15.88;;;9.60;99.90;;;;;;4962814;28;91814;-80
2022/12/25 06:17:05;;;;;;;44.10;19.58;;;9.60;99.90;;;;;;4978288;28;93319;-80
2022/12/25 06:19:32;;;;;;;47.47;19.23;;;9.60;99.90;;;;;;4978580;28;92979;-80
2022/12/25 06:21:59;;;;;;;41.65;18.05;;;9.60;99.90;;;;;;4960842;28;94820;-79
2022/12/25 06:24:26;;;;;;;54.78;20.10;;;9.70;99.90;;;;;;4961372;28;92463;-80
2022/12/25 06:26:53;;;;;;;52.33;19.35;;;9.70;99.90;;;;;;4996085;28;93571;-79
2022/12/25 06:29:20;;;;;;;46.38;17.70;;;9.70;99.90;;;;;;4977973;28;93111;-79
2022/12/25 06:31:47;;;;;;;43.72;18.80;;;9.70;99.90;;;;;;4977859;28;92465;-79
2022/12/25 06:34:15;;;;;;;47.10;18.75;;;9.70;99.90;;;;;;4977731;28;92506;-80
2022/12/25 06:36:42;;;;;;;42.30;17.08;;;9.70;99.90;;;;;;4978011;28;93266;-80
2022/12/25 06:39:09;;;;;;;41.75;18.80;;;9.80;99.90;;;;;;4995768;28;93283;-80
2022/12/25 06:41:36;;;;;;;48.17;17.95;;;9.80;99.90;;;;;;4995811;28;92659;-80
2022/12/25 06:44:04;;;;;;;45.13;19.02;;;9.80;99.90;;;;;;4977789;28;92439;-80
2022/12/25 06:46:31;;;;;;;37.22;17.88;;;9.80;99.90;;;;;;4959717;28;98465;-80
2022/12/25 06:48:59;;;;;;;32.88;16.70;;;9.80;99.90;;;;;;4977865;28;96125;-80
2022/12/25 06:51:28;;;;;;;48.70;18.88;;;9.90;99.90;;;;;;4978035;28;93413;-79
2022/12/25 06:53:56;;;;;;;34.25;16.98;;;9.90;99.90;;;;;;4977878;28;92813;-79
2022/12/25 06:56:27;;;;;;;43.83;18.73;;;9.90;99.90;;;;;;4995092;28;93324;-79
2022/12/25 06:58:56;;;;;;;40.83;18.98;;;9.90;99.90;;;;;;4961064;28;95261;-80
2022/12/25 07:01:23;;;;;;;44.60;17.92;;;10.00;99.90;;;;;;4960856;28;92535;-80
2022/12/25 07:03:54;;;;;;;39.28;17.15;;;10.00;99.90;;;;;;4977880;28;91808;-80
2022/12/25 07:06:21;;;;;;;42.25;19.35;;;10.00;99.90;;;;;;4976897;28;95597;-80
2022/12/25 07:08:48;;;;;;;38.38;17.80;;;10.00;99.90;;;;;;4977543;28;94315;-80
2022/12/25 07:11:15;;;;;;;41.58;18.17;;;10.00;99.90;;;;;;4959701;28;98429;-80
2022/12/25 07:13:42;;;;;;;42.88;16.88;;;9.90;99.90;;;;;;4977403;28;92492;-79
2022/12/25 07:16:11;;;;;;;34.25;17.55;;;9.90;99.90;;;;;;4977380;28;94492;-79
2022/12/25 07:18:39;;;;;;;38.25;18.65;;;9.90;99.90;;;;;;4960852;28;95547;-79
2022/12/25 07:21:14;;;;;;;42.10;18.20;;;9.90;99.90;;;;;;4995345;28;92381;-80
2022/12/25 07:23:45;;;;;;;41.45;17.98;;;9.90;99.90;;;;;;4976900;28;92360;-80
2022/12/25 07:26:12;;;;;;;34.28;17.00;;;9.90;99.90;;;;;;4961006;28;95962;-79
2022/12/25 07:28:39;;;;;;;31.73;17.85;;;9.90;99.90;;;;;;4977223;28;95914;-79
2022/12/25 07:31:10;;;;;;;41.03;18.58;;;9.80;99.90;;;;;;4960661;28;92446;-80
2022/12/25 07:33:37;;;;;;;31.80;16.50;;;9.80;99.90;;;;;;4977709;28;92546;-80
2022/12/25 07:36:06;;;;;;;46.25;18.92;;;9.80;99.90;;;;;;4959601;28;98665;-80
2022/12/25 07:38:33;;;;;;;39.53;16.67;;;9.80;99.90;;;;;;4976978;28;98007;-80
2022/12/25 07:41:00;;;;;;;37.53;16.70;;;9.80;99.90;;;;;;4977519;28;92410;-80
2022/12/25 07:43:27;;;;;;;37.10;18.05;;;9.80;99.90;;;;;;4960825;28;92476;-79
2022/12/25 07:45:59;;;;;;;37.58;16.25;;;9.80;99.90;;;;;;4960731;28;96012;-79
2022/12/25 07:48:27;;;;;;;42.33;18.25;;;9.80;99.90;;;;;;4977419;28;93315;-79
2022/12/25 07:50:58;;;;;;;38.00;18.50;;;9.70;99.90;;;;;;4995027;28;92447;-79
2022/12/25 07:53:25;;;;;;;37.13;17.50;;;9.70;99.90;;;;;;4961009;28;91691;-79
2022/12/25 07:56:01;;;;;;;327.58;136.65;;;9.70;99.90;;;;;;4960331;28;96093;-80
2022/12/25 07:58:29;;;;;;;47.97;27.58;;;9.80;99.90;;;;;;4975733;28;95712;-79
2022/12/25 08:01:03;;;;;;;50.28;26.70;;;9.70;99.90;;;;;;4959081;28;95282;-80
2022/12/25 08:03:31;;;;;;;30.85;16.67;;;9.80;99.90;;;;;;4960479;28;92479;-80
2022/12/25 08:06:04;;;;;;;36.08;18.95;;;9.80;99.90;;;;;;4976948;28;93517;-79
2022/12/25 08:08:31;;;;;;;65.63;35.75;;;9.80;99.90;;;;;;4976930;28;93335;-80
2022/12/25 08:10:58;;;;;;;38.20;20.20;;;9.80;99.90;;;;;;4976587;28;92436;-80
2022/12/25 08:13:28;;;;;;;44.35;26.38;;;9.80;99.90;;;;;;4976429;28;92842;-80
2022/12/25 08:15:58;;;;;;;46.33;26.80;;;9.90;99.90;;;;;;4994417;28;94230;-80
2022/12/25 08:18:25;;;;;;;35.80;21.65;;;9.90;99.90;;;;;;4960176;28;96078;-80
2022/12/25 08:20:56;;;;;;;37.65;18.75;;;9.90;99.90;;;;;;4960914;28;92490;-80
2022/12/25 08:23:23;;;;;;;29.65;21.20;;;9.90;99.90;;;;;;4976325;28;92704;-80
2022/12/25 08:25:50;;;;;;;32.97;18.88;;;9.90;99.90;;;;;;4959078;28;98162;-80
2022/12/25 08:28:17;;;;;;;32.53;22.75;;;10.00;99.90;;;;;;4960014;28;98050;-80
2022/12/25 08:30:44;;;;;;;39.70;25.60;;;10.00;99.90;;;;;;4976598;28;92532;-80
2022/12/25 08:33:11;;;;;;;29.10;16.42;;;10.00;99.90;;;;;;4960890;28;92716;-80
2022/12/25 08:35:38;;;;;;;27.15;16.45;;;10.00;99.90;;;;;;4977488;28;94166;-80
2022/12/25 08:38:05;;;;;;;29.10;19.17;;;10.10;99.90;;;;;;4963641;28;93758;-80
2022/12/25 08:40:32;;;;;;;32.42;15.70;;;10.10;99.90;;;;;;4963322;28;92577;-80
2022/12/25 08:42:59;;;;;;;38.35;24.20;;;10.20;99.90;;;;;;4963788;28;91742;-80
2022/12/25 08:45:26;;;;;;;29.17;16.92;;;10.20;99.90;;;;;;4963126;28;94630;-80
2022/12/25 08:48:00;;;;;;;27.17;14.43;;;10.20;99.90;;;;;;4965929;28;92936;-80
2022/12/25 08:50:27;;;;;;;28.92;14.60;;;10.20;99.90;;;;;;4962109;28;95237;-80
2022/12/25 08:52:54;;;;;;;25.23;13.85;;;10.20;99.90;;;;;;4979950;28;92377;-80
2022/12/25 08:55:21;;;;;;;32.90;20.60;;;10.20;99.90;;;;;;4947122;28;96153;-80
2022/12/25 08:57:52;;;;;;;28.02;17.20;;;10.20;99.90;;;;;;4963212;28;94163;-80
2022/12/25 09:00:19;;;;;;;33.85;24.02;;;10.20;99.90;;;;;;4997526;28;92348;-80
2022/12/25 09:02:46;;;;;;;33.08;24.13;;;10.20;99.90;;;;;;4962637;28;92583;-80
2022/12/25 09:05:13;;;;;;;24.73;13.52;;;10.20;99.90;;;;;;4963318;28;96035;-80
2022/12/25 09:07:40;;;;;;;25.52;16.63;;;10.20;99.90;;;;;;4963090;28;95414;-80
2022/12/25 09:10:08;;;;;;;26.65;13.57;;;10.20;99.90;;;;;;4963171;28;92412;-80
2022/12/25 09:12:35;;;;;;;26.48;14.85;;;10.20;99.90;;;;;;4946882;28;92552;-80
2022/12/25 09:15:03;;;;;;;21.55;12.25;;;10.20;99.90;;;;;;4961394;28;98263;-80
2022/12/25 09:17:31;;;;;;;22.13;12.07;;;10.20;99.90;;;;;;4962379;28;98185;-80
2022/12/25 09:19:59;;;;;;;27.27;12.63;;;10.20;99.90;;;;;;4978935;28;92336;-80
2022/12/25 09:22:26;;;;;;;20.77;11.55;;;10.20;99.90;;;;;;4979149;28;92527;-80
2022/12/25 09:24:53;;;;;;;16.50;10.80;;;10.30;99.90;;;;;;4962427;28;95571;-80
2022/12/25 09:27:20;;;;;;;17.08;11.48;;;10.30;99.90;;;;;;4962404;28;95739;-80
2022/12/25 09:29:47;;;;;;;20.05;11.15;;;10.30;99.90;;;;;;4962406;28;92969;-80
2022/12/25 09:32:17;;;;;;;20.38;11.45;;;10.30;99.90;;;;;;4962821;28;91733;-80
2022/12/25 09:34:43;;;;;;;16.17;10.48;;;10.30;99.90;;;;;;4978447;28;94285;-80
2022/12/25 09:37:11;;;;;;;20.20;10.52;;;10.40;99.90;;;;;;4978531;28;95627;-80
2022/12/25 09:39:37;;;;;;;16.20;10.57;;;10.40;99.90;;;;;;4961677;28;95422;-80
2022/12/25 09:42:30;;;;;;;;;;;10.50;99.90;;;;;;4978988;28;92485;-80
2022/12/25 09:45:15;;;;;;;18.88;10.77;;;10.40;99.90;;;;;;4998337;28;93091;-80
2022/12/25 09:47:45;;;;;;;15.40;9.35;;;10.50;99.90;;;;;;4978296;28;93199;-80
2022/12/25 09:50:22;;;;;;;19.80;9.90;;;10.50;99.90;;;;;;4962724;28;92478;-80
2022/12/25 09:52:57;;;;;;;18.50;10.60;;;10.60;99.90;;;;;;4978732;28;92599;-80
2022/12/25 09:55:27;;;;;;;17.98;9.73;;;10.60;99.90;;;;;;4978324;28;95438;-80
2022/12/25 09:57:59;;;;;;;15.48;9.98;;;10.70;99.90;;;;;;4978891;28;95827;-80
2022/12/25 10:00:39;;;;;;;19.13;10.80;;;10.70;99.90;;;;;;4996653;28;92606;-80
2022/12/25 10:03:31;;;;;;;23.77;11.43;;;10.80;99.90;;;;;;4978713;28;92445;-80
2022/12/25 10:06:04;;;;;;;22.92;12.23;;;10.80;99.90;;;;;;4994821;28;95695;-80
2022/12/25 10:08:46;;;;;;;20.27;10.27;;;10.80;99.90;;;;;;4962176;28;98025;-80
2022/12/25 10:11:51;;;;;;;15.55;10.68;;;10.90;99.90;;;;;;4978384;28;93216;-80
2022/12/25 10:14:18;;;;;;;;;;;10.90;99.90;;;;;;4962664;28;93087;-80
2022/12/25 10:16:59;;;;;;;17.20;11.00;;;10.70;99.90;;;;;;4980408;28;93568;-80
2022/12/25 10:19:55;;;;;;;18.00;10.40;;;10.80;99.90;;;;;;4961947;28;96031;-80
2022/12/25 10:22:34;;;;;;;16.30;9.32;;;10.80;99.90;;;;;;4962093;28;92575;-80
2022/12/25 10:25:05;;;;;;;18.55;10.93;;;10.90;99.90;;;;;;4979553;28;92180;-80
2022/12/25 10:27:41;;;;;;;13.55;10.80;;;10.90;99.90;;;;;;4978266;28;95620;-80
2022/12/25 10:30:18;;;;;;;17.02;12.68;;;11.00;99.90;;;;;;4961683;28;95879;-80
2022/12/25 10:32:46;;;;;;;15.77;9.73;;;11.00;99.90;;;;;;4976727;28;94900;-80
2022/12/25 10:35:16;;;;;;;16.27;9.52;;;11.00;99.90;;;;;;4962539;28;92447;-80
2022/12/25 10:37:45;;;;;;;15.05;9.75;;;11.00;99.90;;;;;;4995785;28;93678;-80
2022/12/25 10:40:39;;;;;;;18.85;10.00;;;11.00;99.90;;;;;;4978592;28;93157;-80
2022/12/25 10:43:10;;;;;;;;;;;11.10;99.90;;;;;;4977605;28;92468;-80
2022/12/25 10:45:48;;;;;;;16.08;9.32;;;11.00;99.90;;;;;;4979462;28;92424;-80
2022/12/25 10:48:28;;;;;;;16.13;9.15;;;11.00;99.90;;;;;;4977938;28;95704;-80
2022/12/25 10:50:55;;;;;;;15.45;9.52;;;11.10;99.90;;;;;;4961992;28;95737;-80
2022/12/25 10:53:26;;;;;;;18.40;10.18;;;11.10;99.90;;;;;;4961985;28;92730;-79
2022/12/25 10:56:03;;;;;;;17.10;8.93;;;11.10;99.90;;;;;;4977339;28;92451;-80
2022/12/25 10:58:31;;;;;;;15.40;10.27;;;11.10;99.90;;;;;;4975774;28;98157;-79
2022/12/25 11:01:02;;;;;;;15.77;10.10;;;11.10;99.90;;;;;;4977079;28;95469;-79
2022/12/25 11:03:32;;;;;;;13.27;8.75;;;11.20;99.90;;;;;;4977402;28;92531;-80
2022/12/25 11:06:01;;;;;;;15.20;9.70;;;11.20;99.90;;;;;;4961494;28;93031;-79
2022/12/25 11:08:30;;;;;;;15.98;9.95;;;11.20;99.90;;;;;;4961999;28;93403;-80
2022/12/25 11:11:04;;;;;;;18.40;9.80;;;11.20;99.90;;;;;;4977574;28;94783;-80
2022/12/25 11:13:46;;;;;;;15.82;8.93;;;11.30;99.90;;;;;;4978075;28;92539;-80
2022/12/25 11:16:28;;;;;;;13.00;8.43;;;11.40;99.90;;;;;;4978762;28;92361;-80
2022/12/25 11:18:57;;;;;;;15.35;8.80;;;11.40;99.90;;;;;;4961192;28;95713;-80
2022/12/25 11:21:29;;;;;;;13.48;8.15;;;11.40;99.90;;;;;;4977804;28;95780;-80
2022/12/25 11:24:16;;;;;;;13.73;8.25;;;11.50;99.90;;;;;;4960201;28;94875;-80
2022/12/25 11:27:26;;;;;;;15.38;9.57;;;11.70;99.90;;;;;;4978342;28;92367;-80
2022/12/25 11:30:00;;;;;;;14.77;7.82;;;11.70;99.90;;;;;;4977372;28;95970;-80
2022/12/25 11:32:36;;;;;;;16.25;10.57;;;11.60;99.90;;;;;;4978116;28;93491;-80
2022/12/25 11:35:11;;;;;;;13.32;8.27;;;11.70;99.90;;;;;;4961059;28;93079;-80
2022/12/25 11:37:43;;;;;;;12.07;8.35;;;11.70;99.90;;;;;;4977715;28;92522;-80
2022/12/25 11:40:20;;;;;;;16.25;7.88;;;11.80;99.90;;;;;;4977219;28;95784;-80
2022/12/25 11:42:56;;;;;;;13.75;7.10;;;11.80;99.90;;;;;;4978142;28;93080;-80
2022/12/25 11:45:32;;;;;;;11.40;6.80;;;11.90;99.90;;;;;;4961510;28;92575;-80
2022/12/25 11:48:16;;;;;;;10.45;6.95;;;12.00;99.90;;;;;;4977544;28;92557;-80
2022/12/25 11:51:01;;;;;;;11.23;7.68;;;12.10;99.90;;;;;;4976640;28;96093;-80
2022/12/25 11:53:30;;;;;;;12.05;6.72;;;12.20;99.90;;;;;;4994981;28;96595;-80
2022/12/25 11:56:05;;;;;;;10.18;6.72;;;12.10;99.90;;;;;;4977118;28;92502;-80
2022/12/25 11:58:38;;;;;;;10.88;6.63;;;12.20;99.90;;;;;;4977615;28;92522;-80
2022/12/25 12:01:20;;;;;;;14.70;8.50;;;12.20;99.90;;;;;;4976287;28;95803;-80
2022/12/25 12:03:50;;;;;;;12.55;6.95;;;12.20;99.90;;;;;;4960884;28;95573;-80
2022/12/25 12:06:43;;;;;;;11.15;7.10;;;12.20;99.90;;;;;;4961594;28;92510;-80
2022/12/25 12:09:35;;;;;;;11.70;7.10;;;12.20;99.90;;;;;;4994732;28;92055;-80
2022/12/25 12:12:08;;;;;;;13.45;7.70;;;12.10;99.90;;;;;;4998440;28;93183;-80
2022/12/25 12:14:56;;;;;;;12.00;8.60;;;12.00;99.90;;;;;;4980374;28;95680;-80
2022/12/25 12:17:23;;;;;;;14.10;8.70;;;12.00;99.90;;;;;;4963080;28;95102;-80
2022/12/25 12:19:51;;;;;;;13.13;8.73;;;11.90;99.90;;;;;;4947925;28;92530;-80
2022/12/25 12:22:27;;;;;;;17.00;10.57;;;11.90;99.90;;;;;;4963845;28;96124;-80
2022/12/25 12:25:00;;;;;;;15.00;9.75;;;11.90;99.90;;;;;;4963490;28;95961;-80
2022/12/25 12:27:38;;;;;;;15.10;10.48;;;11.80;99.90;;;;;;4979908;28;92574;-80
2022/12/25 12:30:07;;;;;;;14.90;9.38;;;11.80;99.90;;;;;;4963133;28;92378;-80
2022/12/25 12:32:39;;;;;;;12.13;8.95;;;11.70;99.90;;;;;;4998178;28;93175;-80
2022/12/25 12:35:15;;;;;;;15.93;9.80;;;11.60;99.90;;;;;;4980693;28;92781;-80
2022/12/25 12:37:46;;;;;;;13.80;8.65;;;11.60;99.90;;;;;;4980145;28;92443;-80
2022/12/25 12:40:32;;;;;;;14.57;9.13;;;11.50;99.90;;;;;;4998086;28;92413;-80
2022/12/25 12:42:59;;;;;;;16.02;8.13;;;11.50;99.90;;;;;;4978654;28;97933;-80
2022/12/25 12:45:33;;;;;;;13.13;8.82;;;11.40;99.90;;;;;;4963740;28;98346;-80
2022/12/25 12:48:00;;;;;;;;;;;11.40;99.90;;;;;;4981166;28;92466;-80
2022/12/25 12:50:35;;;;;;;13.68;7.95;;;11.30;99.90;;;;;;4965051;28;93012;-80
2022/12/25 12:53:20;;;;;;;12.20;8.70;;;11.20;99.90;;;;;;4980102;28;93250;-80
2022/12/25 12:55:48;;;;;;;10.18;7.68;;;11.30;99.90;;;;;;4979664;28;95447;-80
2022/12/25 12:58:31;;;;;;;63.58;49.63;;;11.20;99.90;;;;;;4997850;28;93121;-80
2022/12/25 13:01:36;;;;;;;63.83;53.33;;;11.20;99.90;;;;;;4979237;28;91796;-80
2022/12/25 13:04:52;;;;;;;15.82;8.57;;;11.20;99.90;;;;;;4962333;28;95942;-80
2022/12/25 13:07:48;;;;;;;15.10;11.07;;;11.20;99.90;;;;;;4914630;28;94723;-80
2022/12/25 13:10:24;;;;;;;25.85;16.92;;;11.20;99.90;;;;;;4934579;28;94901;-80
2022/12/25 13:13:02;;;;;;;44.05;31.38;;;11.20;99.90;;;;;;4968844;28;92578;-80
2022/12/25 13:15:35;;;;;;;21.35;19.05;;;11.20;99.90;;;;;;4979128;28;95627;-80
2022/12/25 13:18:05;;;;;;;12.38;9.52;;;11.20;99.90;;;;;;4979017;28;95847;-80
2022/12/25 13:20:38;;;;;;;15.48;10.38;;;11.20;99.90;;;;;;4978795;28;92348;-80
2022/12/25 13:23:24;;;;;;;16.50;10.63;;;11.20;99.90;;;;;;4996844;28;92393;-80
2022/12/25 13:25:56;;;;;;;17.08;10.57;;;11.20;99.90;;;;;;4978890;28;93239;-80
2022/12/25 13:28:26;;;;;;;12.32;8.13;;;11.20;99.90;;;;;;4962611;28;95866;-80
2022/12/25 13:31:05;;;;;;;13.45;8.65;;;11.20;99.90;;;;;;4979186;28;92419;-80
2022/12/25 13:33:33;;;;;;;14.15;9.23;;;11.20;99.90;;;;;;4963032;28;92488;-80
2022/12/25 13:36:00;;;;;;;15.38;8.93;;;11.10;99.90;;;;;;4977704;28;98107;-80
2022/12/25 13:38:28;;;;;;;15.73;8.40;;;11.10;99.90;;;;;;4979103;28;95755;-80
2022/12/25 13:43:43;;;;;;;17.17;8.35;;;11.10;99.90;;;;;;4997263;28;92450;-80
2022/12/25 13:46:12;;;;;;;11.13;7.75;;;11.10;99.90;;;;;;4979054;28;93011;-80
2022/12/25 13:48:40;;;;;;;15.25;8.30;;;11.00;99.90;;;;;;4962534;28;93101;-80
2022/12/25 13:51:14;;;;;;;12.48;7.50;;;11.00;99.90;;;;;;4963226;28;92541;-80
2022/12/25 13:53:42;;;;;;;15.23;10.95;;;11.00;99.90;;;;;;4979086;28;91790;-80
2022/12/25 13:56:15;;;;;;;12.93;9.30;;;10.90;99.90;;;;;;4989670;28;96039;-80
2022/12/25 13:58:44;;;;;;;19.45;10.10;;;11.00;99.90;;;;;;4996746;28;93301;-80
2022/12/25 14:01:15;;;;;;;15.98;10.10;;;11.00;99.90;;;;;;4975956;28;94885;-80
2022/12/25 14:03:46;;;;;;;21.73;11.13;;;11.00;99.90;;;;;;4959085;28;93712;-80
2022/12/25 14:06:16;;;;;;;21.58;16.48;;;11.00;99.90;;;;;;4974869;28;95494;-80
2022/12/25 14:08:43;;;;;;;19.35;11.95;;;10.90;99.90;;;;;;4975921;28;93384;-81
2022/12/25 14:11:14;;;;;;;14.65;10.27;;;10.90;99.90;;;;;;4974686;28;96571;-81
2022/12/25 14:13:45;;;;;;;16.20;10.82;;;10.90;99.90;;;;;;4958708;28;92605;-81
2022/12/25 14:16:15;;;;;;;59.80;42.17;;;10.90;99.90;;;;;;4974839;28;93187;-81
2022/12/25 14:18:50;;;;;;;19.02;17.08;;;10.90;99.90;;;;;;4958704;28;96235;-81
2022/12/25 14:21:27;;;;;;;14.43;11.38;;;10.90;99.90;;;;;;4958147;28;93144;-81
2022/12/25 14:23:54;;;;;;;16.98;11.75;;;10.90;99.90;;;;;;4958806;28;93158;-81
2022/12/25 14:26:26;;;;;;;13.80;10.60;;;10.80;99.90;;;;;;4957545;28;95756;-81
2022/12/25 14:28:57;;;;;;;19.77;12.73;;;10.80;99.90;;;;;;4958302;28;97630;-81
2022/12/25 14:31:28;;;;;;;16.45;11.20;;;10.80;99.90;;;;;;4974985;28;92446;-81
2022/12/25 14:33:56;;;;;;;19.23;14.25;;;10.70;99.90;;;;;;4958656;28;92954;-81
2022/12/25 14:36:23;;;;;;;16.65;10.73;;;10.70;99.90;;;;;;4958197;28;95622;-81
2022/12/25 14:39:03;;;;;;;17.20;11.40;;;10.60;99.90;;;;;;4974156;28;95819;-81
2022/12/25 14:41:40;;;;;;;17.08;12.38;;;10.70;99.90;;;;;;4974338;28;92500;-81
2022/12/25 14:44:26;;;;;;;19.10;13.95;;;10.70;99.90;;;;;;4974888;28;91638;-81
2022/12/25 14:47:15;;;;;;;15.57;12.05;;;10.70;99.90;;;;;;4958146;28;96379;-81
2022/12/25 14:49:42;;;;;;;14.80;10.80;;;10.70;99.90;;;;;;4957766;28;95358;-81
2022/12/25 14:52:19;;;;;;;26.30;18.50;;;10.70;99.90;;;;;;4956909;28;94947;-81